sensor_id;sensor_type;location;lat;lon;timestamp;pressure;altitude;pressure_sealevel;temperature;humidity
5126;BME280;63008;53.112;8.896;2023-03-22T00:01:59;100894.50;;;10.31;89.56
5126;BME280;63008;53.112;8.896;2023-03-22T00:04:01;100894.69;;;10.26;89.70
5126;BME280;63008;53.112;8.896;2023-03-22T00:06:02;100889.06;;;10.23;89.86
5126;BME280;63008;53.112;8.896;2023-03-22T00:08:04;100886.31;;;10.23;89.79
5126;BME280;63008;53.112;8.896;2023-03-22T00:10:07;100888.41;;;10.17;90.15
5126;BME280;63008;53.112;8.896;2023-03-22T00:12:08;100883.59;;;10.14;90.19
5126;BME280;63008;53.112;8.896;2023-03-22T00:14:09;100881.50;;;10.11;90.33
5126;BME280;63008;53.112;8.896;2023-03-22T00:16:10;100869.91;;;10.06;90.57
5126;BME280;63008;53.112;8.896;2023-03-22T00:18:10;100870.88;;;10.01;90.86
5126;BME280;63008;53.112;8.896;2023-03-22T00:20:12;100869.13;;;9.97;91.13
5126;BME280;63008;53.112;8.896;2023-03-22T00:22:13;100863.94;;;9.95;91.01
5126;BME280;63008;53.112;8.896;2023-03-22T00:24:14;100862.81;;;9.96;91.23
5126;BME280;63008;53.112;8.896;2023-03-22T00:26:15;100863.00;;;9.91;91.34
5126;BME280;63008;53.112;8.896;2023-03-22T00:28:18;100853.16;;;9.90;91.36
5126;BME280;63008;53.112;8.896;2023-03-22T00:30:19;100862.16;;;9.91;91.35
5126;BME280;63008;53.112;8.896;2023-03-22T00:32:20;100852.50;;;9.93;90.99
5126;BME280;63008;53.112;8.896;2023-03-22T00:34:21;100851.22;;;9.91;91.26
5126;BME280;63008;53.112;8.896;2023-03-22T00:36:22;100853.16;;;9.90;91.18
5126;BME280;63008;53.112;8.896;2023-03-22T00:38:24;100852.34;;;9.90;91.14
5126;BME280;63008;53.112;8.896;2023-03-22T00:40:25;100846.53;;;9.91;90.97
5126;BME280;63008;53.112;8.896;2023-03-22T00:42:26;100850.06;;;9.92;91.18
5126;BME280;63008;53.112;8.896;2023-03-22T00:44:27;100848.34;;;9.87;91.34
5126;BME280;63008;53.112;8.896;2023-03-22T00:46:28;100849.47;;;9.86;91.48
5126;BME280;63008;53.112;8.896;2023-03-22T00:48:30;100847.34;;;9.92;91.25
5126;BME280;63008;53.112;8.896;2023-03-22T00:50:31;100848.81;;;9.89;91.39
5126;BME280;63008;53.112;8.896;2023-03-22T00:52:32;100844.59;;;9.92;91.25
5126;BME280;63008;53.112;8.896;2023-03-22T00:54:34;100840.41;;;9.94;91.09
5126;BME280;63008;53.112;8.896;2023-03-22T00:56:35;100836.53;;;9.95;90.99
5126;BME280;63008;53.112;8.896;2023-03-22T00:58:40;100832.50;;;9.93;91.21
5126;BME280;63008;53.112;8.896;2023-03-22T01:00:41;100821.41;;;9.89;91.57
5126;BME280;63008;53.112;8.896;2023-03-22T01:02:44;100824.63;;;9.91;91.47
5126;BME280;63008;53.112;8.896;2023-03-22T01:04:45;100825.28;;;9.88;91.46
5126;BME280;63008;53.112;8.896;2023-03-22T01:06:47;100821.06;;;9.91;91.50
5126;BME280;63008;53.112;8.896;2023-03-22T01:08:48;100818.00;;;9.92;91.24
5126;BME280;63008;53.112;8.896;2023-03-22T01:10:50;100820.28;;;9.90;91.37
5126;BME280;63008;53.112;8.896;2023-03-22T01:12:51;100813.19;;;9.89;91.46
5126;BME280;63008;53.112;8.896;2023-03-22T01:14:53;100813.66;;;9.91;91.65
5126;BME280;63008;53.112;8.896;2023-03-22T01:16:54;100819.13;;;9.91;91.46
5126;BME280;63008;53.112;8.896;2023-03-22T01:18:56;100818.78;;;9.93;91.34
5126;BME280;63008;53.112;8.896;2023-03-22T01:20:58;100814.91;;;9.94;91.49
5126;BME280;63008;53.112;8.896;2023-03-22T01:22:59;100817.03;;;9.97;91.32
5126;BME280;63008;53.112;8.896;2023-03-22T01:25:00;100817.03;;;9.97;91.29
5126;BME280;63008;53.112;8.896;2023-03-22T01:27:01;100810.88;;;10.00;91.05
5126;BME280;63008;53.112;8.896;2023-03-22T01:29:02;100805.56;;;10.03;90.86
5126;BME280;63008;53.112;8.896;2023-03-22T01:31:03;100813.31;;;10.01;90.95
5126;BME280;63008;53.112;8.896;2023-03-22T01:33:04;100803.63;;;10.04;90.81
5126;BME280;63008;53.112;8.896;2023-03-22T01:35:07;100800.06;;;10.03;90.95
5126;BME280;63008;53.112;8.896;2023-03-22T01:37:09;100799.59;;;10.01;91.09
5126;BME280;63008;53.112;8.896;2023-03-22T01:39:10;100794.13;;;10.01;91.15
5126;BME280;63008;53.112;8.896;2023-03-22T01:41:11;100789.09;;;10.03;91.16
5126;BME280;63008;53.112;8.896;2023-03-22T01:43:14;100793.50;;;10.04;91.15
5126;BME280;63008;53.112;8.896;2023-03-22T01:45:31;100782.78;;;10.11;90.64
5126;BME280;63008;53.112;8.896;2023-03-22T01:47:34;100777.31;;;10.11;90.65
5126;BME280;63008;53.112;8.896;2023-03-22T01:49:36;100777.31;;;10.11;90.67
5126;BME280;63008;53.112;8.896;2023-03-22T01:51:38;100772.44;;;10.17;90.44
5126;BME280;63008;53.112;8.896;2023-03-22T01:54:04;100776.13;;;10.21;90.37
5126;BME280;63008;53.112;8.896;2023-03-22T01:56:06;100774.34;;;10.25;90.07
5126;BME280;63008;53.112;8.896;2023-03-22T01:58:08;100771.47;;;10.21;90.20
5126;BME280;63008;53.112;8.896;2023-03-22T02:00:11;100766.44;;;10.23;90.01
5126;BME280;63008;53.112;8.896;2023-03-22T02:02:16;100765.59;;;10.31;89.55
5126;BME280;63008;53.112;8.896;2023-03-22T02:04:21;100771.28;;;10.26;89.70
5126;BME280;63008;53.112;8.896;2023-03-22T02:06:25;100763.97;;;10.30;89.82
5126;BME280;63008;53.112;8.896;2023-03-22T02:08:27;100759.16;;;10.27;89.78
5126;BME280;63008;53.112;8.896;2023-03-22T02:10:28;100760.78;;;10.28;89.71
5126;BME280;63008;53.112;8.896;2023-03-22T02:15:11;100751.56;;;10.33;89.40
5126;BME280;63008;53.112;8.896;2023-03-22T02:25:04;100757.63;;;10.38;89.08
5126;BME280;63008;53.112;8.896;2023-03-22T02:27:51;100755.09;;;10.33;89.32
5126;BME280;63008;53.112;8.896;2023-03-22T02:30:24;100747.31;;;10.35;89.11
5126;BME280;63008;53.112;8.896;2023-03-22T02:32:58;100753.78;;;10.39;88.98
5126;BME280;63008;53.112;8.896;2023-03-22T02:37:35;100757.25;;;10.48;88.30
5126;BME280;63008;53.112;8.896;2023-03-22T02:42:06;100746.50;;;10.43;88.60
5126;BME280;63008;53.112;8.896;2023-03-22T02:46:22;100751.81;;;10.40;88.77
5126;BME280;63008;53.112;8.896;2023-03-22T02:48:31;100753.78;;;10.39;88.74
5126;BME280;63008;53.112;8.896;2023-03-22T02:57:14;100744.81;;;10.51;88.07
5126;BME280;63008;53.112;8.896;2023-03-22T02:59:18;100744.16;;;10.54;87.98
5126;BME280;63008;53.112;8.896;2023-03-22T03:01:30;100734.78;;;10.55;87.74
5126;BME280;63008;53.112;8.896;2023-03-22T03:03:33;100734.44;;;10.56;87.68
5126;BME280;63008;53.112;8.896;2023-03-22T03:05:40;100729.63;;;10.53;87.68
5126;BME280;63008;53.112;8.896;2023-03-22T03:07:47;100736.72;;;10.54;87.71
5126;BME280;63008;53.112;8.896;2023-03-22T03:09:49;100743.00;;;10.55;87.62
5126;BME280;63008;53.112;8.896;2023-03-22T03:11:52;100728.38;;;10.51;87.69
5126;BME280;63008;53.112;8.896;2023-03-22T03:13:53;100728.75;;;10.61;87.20
5126;BME280;63008;53.112;8.896;2023-03-22T03:15:56;100738.59;;;10.62;87.09
5126;BME280;63008;53.112;8.896;2023-03-22T03:18:10;100736.19;;;10.61;87.37
5126;BME280;63008;53.112;8.896;2023-03-22T03:20:25;100731.81;;;10.60;87.35
5126;BME280;63008;53.112;8.896;2023-03-22T03:24:43;100723.59;;;10.60;87.29
5126;BME280;63008;53.112;8.896;2023-03-22T03:27:41;100733.78;;;10.59;87.26
5126;BME280;63008;53.112;8.896;2023-03-22T03:31:36;100736.47;;;10.68;86.78
5126;BME280;63008;53.112;8.896;2023-03-22T03:33:50;100735.50;;;10.64;86.99
5126;BME280;63008;53.112;8.896;2023-03-22T03:36:02;100733.91;;;10.63;86.86
5126;BME280;63008;53.112;8.896;2023-03-22T03:38:08;100725.34;;;10.64;86.75
5126;BME280;63008;53.112;8.896;2023-03-22T03:40:14;100736.31;;;10.64;86.64
5126;BME280;63008;53.112;8.896;2023-03-22T03:42:17;100731.31;;;10.66;86.52
5126;BME280;63008;53.112;8.896;2023-03-22T03:44:18;100732.59;;;10.69;86.41
5126;BME280;63008;53.112;8.896;2023-03-22T03:46:20;100727.88;;;10.69;86.26
5126;BME280;63008;53.112;8.896;2023-03-22T03:48:24;100734.97;;;10.70;86.18
5126;BME280;63008;53.112;8.896;2023-03-22T03:50:27;100726.63;;;10.67;86.29
5126;BME280;63008;53.112;8.896;2023-03-22T03:52:28;100720.53;;;10.61;86.45
5126;BME280;63008;53.112;8.896;2023-03-22T03:54:29;100728.31;;;10.59;86.74
5126;BME280;63008;53.112;8.896;2023-03-22T03:56:30;100722.34;;;10.57;86.88
5126;BME280;63008;53.112;8.896;2023-03-22T03:58:31;100716.03;;;10.57;86.88
5126;BME280;63008;53.112;8.896;2023-03-22T04:00:32;100716.34;;;10.55;87.06
5126;BME280;63008;53.112;8.896;2023-03-22T04:02:33;100727.22;;;10.52;87.08
5126;BME280;63008;53.112;8.896;2023-03-22T04:04:34;100713.50;;;10.52;87.10
5126;BME280;63008;53.112;8.896;2023-03-22T04:06:35;100715.44;;;10.51;86.79
5126;BME280;63008;53.112;8.896;2023-03-22T04:08:37;100724.66;;;10.47;87.04
5126;BME280;63008;53.112;8.896;2023-03-22T04:10:38;100719.16;;;10.47;87.01
5126;BME280;63008;53.112;8.896;2023-03-22T04:12:39;100724.19;;;10.45;87.21
5126;BME280;63008;53.112;8.896;2023-03-22T04:14:40;100714.03;;;10.45;86.91
5126;BME280;63008;53.112;8.896;2023-03-22T04:16:41;100710.94;;;10.47;87.04
5126;BME280;63008;53.112;8.896;2023-03-22T04:18:42;100715.97;;;10.45;87.02
5126;BME280;63008;53.112;8.896;2023-03-22T04:20:45;100715.16;;;10.44;87.02
5126;BME280;63008;53.112;8.896;2023-03-22T04:22:46;100709.69;;;10.44;87.07
5126;BME280;63008;53.112;8.896;2023-03-22T04:24:48;100707.56;;;10.50;86.78
5126;BME280;63008;53.112;8.896;2023-03-22T04:26:52;100701.44;;;10.44;86.91
5126;BME280;63008;53.112;8.896;2023-03-22T04:28:53;100705.13;;;10.48;86.77
5126;BME280;63008;53.112;8.896;2023-03-22T04:30:54;100706.72;;;10.49;86.72
5126;BME280;63008;53.112;8.896;2023-03-22T04:32:57;100707.56;;;10.50;86.35
5126;BME280;63008;53.112;8.896;2023-03-22T04:34:58;100711.38;;;10.57;86.04
5126;BME280;63008;53.112;8.896;2023-03-22T04:36:58;100712.47;;;10.56;86.05
5126;BME280;63008;53.112;8.896;2023-03-22T04:39:07;100710.56;;;10.57;86.03
5126;BME280;63008;53.112;8.896;2023-03-22T04:41:09;100701.50;;;10.56;85.86
5126;BME280;63008;53.112;8.896;2023-03-22T04:43:11;100696.69;;;10.53;86.03
5126;BME280;63008;53.112;8.896;2023-03-22T04:45:12;100692.47;;;10.56;85.83
5126;BME280;63008;53.112;8.896;2023-03-22T04:47:13;100697.97;;;10.56;85.80
5126;BME280;63008;53.112;8.896;2023-03-22T04:49:17;100697.97;;;10.56;85.69
5126;BME280;63008;53.112;8.896;2023-03-22T04:51:18;100688.91;;;10.55;85.68
5126;BME280;63008;53.112;8.896;2023-03-22T04:53:19;100687.00;;;10.56;85.64
5126;BME280;63008;53.112;8.896;2023-03-22T04:55:27;100680.91;;;10.50;85.87
5126;BME280;63008;53.112;8.896;2023-03-22T04:57:29;100690.75;;;10.51;85.84
5126;BME280;63008;53.112;8.896;2023-03-22T04:59:30;100681.72;;;10.51;85.91
5126;BME280;63008;53.112;8.896;2023-03-22T05:01:31;100685.13;;;10.48;86.07
5126;BME280;63008;53.112;8.896;2023-03-22T05:03:33;100685.47;;;10.46;86.11
5126;BME280;63008;53.112;8.896;2023-03-22T05:05:34;100683.31;;;10.52;85.79
5126;BME280;63008;53.112;8.896;2023-03-22T05:07:35;100693.47;;;10.51;85.84
5126;BME280;63008;53.112;8.896;2023-03-22T05:09:36;100676.56;;;10.49;85.79
5126;BME280;63008;53.112;8.896;2023-03-22T05:11:37;100687.38;;;10.46;86.17
5126;BME280;63008;53.112;8.896;2023-03-22T05:13:40;100679.50;;;10.44;86.09
5126;BME280;63008;53.112;8.896;2023-03-22T05:15:41;100677.22;;;10.46;86.17
5126;BME280;63008;53.112;8.896;2023-03-22T05:17:42;100680.91;;;10.50;85.80
5126;BME280;63008;53.112;8.896;2023-03-22T05:19:43;100676.56;;;10.49;85.93
5126;BME280;63008;53.112;8.896;2023-03-22T05:21:44;100671.75;;;10.46;85.93
5126;BME280;63008;53.112;8.896;2023-03-22T05:23:45;100670.28;;;10.49;85.75
5126;BME280;63008;53.112;8.896;2023-03-22T05:25:47;100671.41;;;10.48;85.68
5126;BME280;63008;53.112;8.896;2023-03-22T05:27:48;100665.94;;;10.48;85.79
5126;BME280;63008;53.112;8.896;2023-03-22T05:29:53;100660.44;;;10.48;85.71
5126;BME280;63008;53.112;8.896;2023-03-22T05:31:54;100669.13;;;10.50;85.46
5126;BME280;63008;53.112;8.896;2023-03-22T05:33:55;100668.31;;;10.49;85.61
5126;BME280;63008;53.112;8.896;2023-03-22T05:35:57;100654.13;;;10.47;85.62
5126;BME280;63008;53.112;8.896;2023-03-22T05:37:58;100660.22;;;10.53;85.16
5126;BME280;63008;53.112;8.896;2023-03-22T05:39:59;100664.22;;;10.55;85.03
5126;BME280;63008;53.112;8.896;2023-03-22T05:42:00;100660.16;;;10.61;84.54
5126;BME280;63008;53.112;8.896;2023-03-22T05:44:01;100654.69;;;10.61;84.68
5126;BME280;63008;53.112;8.896;2023-03-22T05:46:09;100655.91;;;10.64;84.38
5126;BME280;63008;53.112;8.896;2023-03-22T05:48:11;100651.50;;;10.71;83.98
5126;BME280;63008;53.112;8.896;2023-03-22T05:50:14;100648.44;;;10.73;84.09
5126;BME280;63008;53.112;8.896;2023-03-22T05:52:15;100646.28;;;10.78;83.60
5126;BME280;63008;53.112;8.896;2023-03-22T05:54:16;100652.69;;;10.82;83.65
5126;BME280;63008;53.112;8.896;2023-03-22T05:56:17;100648.81;;;10.83;83.52
5126;BME280;63008;53.112;8.896;2023-03-22T05:58:23;100652.38;;;10.84;83.75
5126;BME280;63008;53.112;8.896;2023-03-22T06:00:24;100647.81;;;10.88;83.74
5126;BME280;63008;53.112;8.896;2023-03-22T06:02:25;100645.53;;;10.89;83.94
5126;BME280;63008;53.112;8.896;2023-03-22T06:04:26;100648.19;;;10.98;83.69
5126;BME280;63008;53.112;8.896;2023-03-22T06:06:27;100649.09;;;11.02;83.50
5126;BME280;63008;53.112;8.896;2023-03-22T06:08:28;100639.72;;;11.03;83.09
5126;BME280;63008;53.112;8.896;2023-03-22T06:10:29;100646.13;;;11.07;83.29
5126;BME280;63008;53.112;8.896;2023-03-22T06:12:30;100644.66;;;11.09;83.11
5126;BME280;63008;53.112;8.896;2023-03-22T06:14:32;100638.84;;;11.11;83.17
5126;BME280;63008;53.112;8.896;2023-03-22T06:16:33;100636.19;;;11.14;82.98
5126;BME280;63008;53.112;8.896;2023-03-22T06:18:34;100631.84;;;11.13;82.90
5126;BME280;63008;53.112;8.896;2023-03-22T06:20:35;100633.56;;;11.18;83.00
5126;BME280;63008;53.112;8.896;2023-03-22T06:22:37;100646.28;;;11.22;82.80
5126;BME280;63008;53.112;8.896;2023-03-22T06:24:38;100639.31;;;11.25;82.65
5126;BME280;63008;53.112;8.896;2023-03-22T06:26:40;100637.25;;;11.22;83.04
5126;BME280;63008;53.112;8.896;2023-03-22T06:28:41;100634.41;;;11.30;82.79
5126;BME280;63008;53.112;8.896;2023-03-22T06:30:42;100637.72;;;11.36;82.42
5126;BME280;63008;53.112;8.896;2023-03-22T06:32:43;100638.44;;;11.45;82.05
5126;BME280;63008;53.112;8.896;2023-03-22T06:34:44;100635.00;;;11.48;81.78
5126;BME280;63008;53.112;8.896;2023-03-22T06:36:45;100644.03;;;11.48;81.66
5126;BME280;63008;53.112;8.896;2023-03-22T06:38:46;100631.38;;;11.56;81.58
5126;BME280;63008;53.112;8.896;2023-03-22T06:40:47;100640.88;;;11.58;81.27
5126;BME280;63008;53.112;8.896;2023-03-22T06:42:48;100642.59;;;11.63;81.46
5126;BME280;63008;53.112;8.896;2023-03-22T06:44:49;100638.00;;;11.67;81.40
5126;BME280;63008;53.112;8.896;2023-03-22T06:46:50;100640.06;;;11.70;81.07
5126;BME280;63008;53.112;8.896;2023-03-22T06:48:51;100629.53;;;11.72;80.92
5126;BME280;63008;53.112;8.896;2023-03-22T06:50:52;100635.72;;;11.69;81.25
5126;BME280;63008;53.112;8.896;2023-03-22T06:52:53;100632.97;;;11.69;81.27
5126;BME280;63008;53.112;8.896;2023-03-22T06:54:54;100627.81;;;11.67;81.49
5126;BME280;63008;53.112;8.896;2023-03-22T06:56:56;100624.38;;;11.70;81.29
5126;BME280;63008;53.112;8.896;2023-03-22T06:58:57;100635.16;;;11.75;81.04
5126;BME280;63008;53.112;8.896;2023-03-22T07:00:58;100632.50;;;11.79;80.95
5126;BME280;63008;53.112;8.896;2023-03-22T07:02:59;100622.88;;;11.85;80.68
5126;BME280;63008;53.112;8.896;2023-03-22T07:05:00;100625.84;;;11.92;80.46
5126;BME280;63008;53.112;8.896;2023-03-22T07:07:01;100617.03;;;11.98;80.07
5126;BME280;63008;53.112;8.896;2023-03-22T07:09:03;100623.34;;;11.99;80.31
5126;BME280;63008;53.112;8.896;2023-03-22T07:11:04;100618.28;;;12.01;80.20
5126;BME280;63008;53.112;8.896;2023-03-22T07:13:05;100627.31;;;12.01;79.95
5126;BME280;63008;53.112;8.896;2023-03-22T07:15:06;100626.63;;;12.04;80.06
5126;BME280;63008;53.112;8.896;2023-03-22T07:17:07;100629.50;;;12.08;79.84
5126;BME280;63008;53.112;8.896;2023-03-22T07:19:08;100626.19;;;12.02;80.04
5126;BME280;63008;53.112;8.896;2023-03-22T07:21:09;100625.84;;;12.04;79.71
5126;BME280;63008;53.112;8.896;2023-03-22T07:23:10;100622.97;;;12.00;80.22
5126;BME280;63008;53.112;8.896;2023-03-22T07:25:11;100629.75;;;12.03;80.21
5126;BME280;63008;53.112;8.896;2023-03-22T07:27:13;100622.84;;;12.09;79.85
5126;BME280;63008;53.112;8.896;2023-03-22T07:29:14;100614.25;;;12.10;79.42
5126;BME280;63008;53.112;8.896;2023-03-22T07:31:15;100609.66;;;12.14;79.01
5126;BME280;63008;53.112;8.896;2023-03-22T07:33:16;100606.34;;;12.09;79.43
5126;BME280;63008;53.112;8.896;2023-03-22T07:35:17;100598.09;;;12.09;79.36
5126;BME280;63008;53.112;8.896;2023-03-22T07:37:18;100603.81;;;12.16;79.53
5126;BME280;63008;53.112;8.896;2023-03-22T07:39:19;100588.53;;;12.18;78.92
5126;BME280;63008;53.112;8.896;2023-03-22T07:41:20;100590.16;;;12.19;79.09
5126;BME280;63008;53.112;8.896;2023-03-22T07:43:23;100573.31;;;12.21;78.83
5126;BME280;63008;53.112;8.896;2023-03-22T07:45:24;100584.75;;;12.23;78.81
5126;BME280;63008;53.112;8.896;2023-03-22T07:47:25;100579.25;;;12.23;78.76
5126;BME280;63008;53.112;8.896;2023-03-22T07:49:26;100576.25;;;12.28;78.58
5126;BME280;63008;53.112;8.896;2023-03-22T07:51:27;100580.25;;;12.30;78.87
5126;BME280;63008;53.112;8.896;2023-03-22T07:53:29;100569.38;;;12.34;78.63
5126;BME280;63008;53.112;8.896;2023-03-22T07:55:30;100583.13;;;12.34;78.40
5126;BME280;63008;53.112;8.896;2023-03-22T07:57:31;100584.28;;;12.33;78.62
5126;BME280;63008;53.112;8.896;2023-03-22T07:59:32;100570.16;;;12.34;78.15
5126;BME280;63008;53.112;8.896;2023-03-22T08:01:33;100568.66;;;12.37;77.79
5126;BME280;63008;53.112;8.896;2023-03-22T08:03:35;100557.56;;;12.33;77.98
5126;BME280;63008;53.112;8.896;2023-03-22T08:05:41;100571.06;;;12.38;77.92
5126;BME280;63008;53.112;8.896;2023-03-22T08:07:42;100561.31;;;12.41;77.79
5126;BME280;63008;53.112;8.896;2023-03-22T08:09:44;100564.94;;;12.45;77.83
5126;BME280;63008;53.112;8.896;2023-03-22T08:11:45;100560.34;;;12.49;77.57
5126;BME280;63008;53.112;8.896;2023-03-22T08:13:46;100564.53;;;12.58;77.19
5126;BME280;63008;53.112;8.896;2023-03-22T08:15:47;100561.38;;;12.72;76.92
5126;BME280;63008;53.112;8.896;2023-03-22T08:17:48;100554.13;;;12.79;76.12
5126;BME280;63008;53.112;8.896;2023-03-22T08:19:49;100560.63;;;12.86;76.07
5126;BME280;63008;53.112;8.896;2023-03-22T08:21:50;100561.41;;;12.87;75.40
5126;BME280;63008;53.112;8.896;2023-03-22T08:23:51;100560.53;;;12.83;75.47
5126;BME280;63008;53.112;8.896;2023-03-22T08:25:53;100550.75;;;12.85;75.63
5126;BME280;63008;53.112;8.896;2023-03-22T08:27:53;100549.47;;;12.95;75.17
5126;BME280;63008;53.112;8.896;2023-03-22T08:29:54;100549.09;;;12.96;74.91
5126;BME280;63008;53.112;8.896;2023-03-22T08:31:55;100541.53;;;13.09;74.74
5126;BME280;63008;53.112;8.896;2023-03-22T08:34:01;100537.81;;;13.17;74.38
5126;BME280;63008;53.112;8.896;2023-03-22T08:36:06;100543.06;;;13.22;73.50
5126;BME280;63008;53.112;8.896;2023-03-22T08:38:07;100544.03;;;13.29;73.42
5126;BME280;63008;53.112;8.896;2023-03-22T08:40:09;100538.53;;;13.29;73.14
5126;BME280;63008;53.112;8.896;2023-03-22T08:42:10;100530.97;;;13.26;73.53
5126;BME280;63008;53.112;8.896;2023-03-22T08:44:11;100535.78;;;13.29;73.92
5126;BME280;63008;53.112;8.896;2023-03-22T08:46:12;100531.41;;;13.28;72.88
5126;BME280;63008;53.112;8.896;2023-03-22T08:48:13;100534.75;;;13.53;72.18
5126;BME280;63008;53.112;8.896;2023-03-22T08:50:14;100538.72;;;13.71;72.09
5126;BME280;63008;53.112;8.896;2023-03-22T08:52:15;100523.47;;;13.92;71.00
5126;BME280;63008;53.112;8.896;2023-03-22T08:54:16;100525.72;;;14.06;70.08
5126;BME280;63008;53.112;8.896;2023-03-22T08:56:17;100527.44;;;14.14;69.47
5126;BME280;63008;53.112;8.896;2023-03-22T08:58:19;100526.03;;;14.20;69.13
5126;BME280;63008;53.112;8.896;2023-03-22T09:00:20;100526.28;;;14.15;68.97
5126;BME280;63008;53.112;8.896;2023-03-22T09:02:24;100528.06;;;14.23;68.83
5126;BME280;63008;53.112;8.896;2023-03-22T09:04:25;100526.78;;;14.01;69.05
5126;BME280;63008;53.112;8.896;2023-03-22T09:06:26;100532.75;;;14.03;69.25
5126;BME280;63008;53.112;8.896;2023-03-22T09:08:27;100530.19;;;14.29;68.22
5126;BME280;63008;53.112;8.896;2023-03-22T09:10:28;100519.91;;;14.30;67.54
5126;BME280;63008;53.112;8.896;2023-03-22T09:12:29;100529.44;;;14.32;67.48
5126;BME280;63008;53.112;8.896;2023-03-22T09:14:31;100535.50;;;14.19;67.74
5126;BME280;63008;53.112;8.896;2023-03-22T09:16:31;100518.66;;;14.08;68.13
5126;BME280;63008;53.112;8.896;2023-03-22T09:18:33;100521.19;;;13.98;67.91
5126;BME280;63008;53.112;8.896;2023-03-22T09:20:34;100520.69;;;13.92;68.44
5126;BME280;63008;53.112;8.896;2023-03-22T09:22:35;100507.03;;;13.80;68.70
5126;BME280;63008;53.112;8.896;2023-03-22T09:24:36;100519.66;;;13.81;68.72
5126;BME280;63008;53.112;8.896;2023-03-22T09:26:37;100501.41;;;13.77;68.71
5126;BME280;63008;53.112;8.896;2023-03-22T09:28:38;100498.03;;;13.83;67.78
5126;BME280;63008;53.112;8.896;2023-03-22T09:30:39;100497.94;;;13.80;68.25
5126;BME280;63008;53.112;8.896;2023-03-22T09:32:41;100507.13;;;13.84;68.09
5126;BME280;63008;53.112;8.896;2023-03-22T09:34:42;100506.38;;;13.87;67.65
5126;BME280;63008;53.112;8.896;2023-03-22T09:36:42;100498.31;;;13.97;67.25
5126;BME280;63008;53.112;8.896;2023-03-22T09:38:44;100499.28;;;14.05;65.65
5126;BME280;63008;53.112;8.896;2023-03-22T09:40:51;100503.19;;;14.04;65.89
5126;BME280;63008;53.112;8.896;2023-03-22T09:43:03;100492.22;;;13.88;65.57
5126;BME280;63008;53.112;8.896;2023-03-22T09:45:09;100489.66;;;13.99;65.80
5126;BME280;63008;53.112;8.896;2023-03-22T09:47:16;100503.84;;;13.97;65.38
5126;BME280;63008;53.112;8.896;2023-03-22T09:49:22;100493.31;;;14.03;65.44
5126;BME280;63008;53.112;8.896;2023-03-22T09:51:48;100513.59;;;13.91;65.23
5126;BME280;63008;53.112;8.896;2023-03-22T09:53:49;100509.88;;;13.84;65.38
5126;BME280;63008;53.112;8.896;2023-03-22T09:56:12;100504.34;;;13.84;66.49
5126;BME280;63008;53.112;8.896;2023-03-22T10:02:40;100519.16;;;13.95;65.36
5126;BME280;63008;53.112;8.896;2023-03-22T10:04:58;100518.00;;;13.96;65.21
5126;BME280;63008;53.112;8.896;2023-03-22T10:11:43;100514.66;;;13.87;63.99
5126;BME280;63008;53.112;8.896;2023-03-22T10:15:56;100537.91;;;13.86;64.18
5126;BME280;63008;53.112;8.896;2023-03-22T10:17:59;100523.47;;;13.92;64.20
5126;BME280;63008;53.112;8.896;2023-03-22T10:20:20;100531.66;;;13.89;64.46
5126;BME280;63008;53.112;8.896;2023-03-22T10:22:28;100524.31;;;13.96;64.37
5126;BME280;63008;53.112;8.896;2023-03-22T10:24:32;100503.34;;;13.92;64.26
5126;BME280;63008;53.112;8.896;2023-03-22T10:26:39;100509.16;;;14.06;64.54
5126;BME280;63008;53.112;8.896;2023-03-22T10:28:43;100521.50;;;14.12;64.33
5126;BME280;63008;53.112;8.896;2023-03-22T10:30:55;100508.31;;;14.21;63.65
5126;BME280;63008;53.112;8.896;2023-03-22T10:33:04;100509.47;;;14.20;63.56
5126;BME280;63008;53.112;8.896;2023-03-22T10:35:13;100509.25;;;14.28;63.54
5126;BME280;63008;53.112;8.896;2023-03-22T10:37:30;100503.66;;;14.25;63.92
5126;BME280;63008;53.112;8.896;2023-03-22T10:39:38;100506.53;;;14.32;63.89
5126;BME280;63008;53.112;8.896;2023-03-22T10:41:40;100505.16;;;14.41;63.31
5126;BME280;63008;53.112;8.896;2023-03-22T10:43:42;100509.97;;;14.44;63.01
5126;BME280;63008;53.112;8.896;2023-03-22T10:45:43;100513.75;;;14.36;63.36
5126;BME280;63008;53.112;8.896;2023-03-22T10:47:49;100523.63;;;14.37;63.62
5126;BME280;63008;53.112;8.896;2023-03-22T10:49:54;100522.25;;;14.28;62.78
5126;BME280;63008;53.112;8.896;2023-03-22T10:52:02;100522.91;;;14.21;63.38
5126;BME280;63008;53.112;8.896;2023-03-22T10:54:03;100521.13;;;14.13;63.38
5126;BME280;63008;53.112;8.896;2023-03-22T10:56:10;100517.22;;;14.14;62.74
5126;BME280;63008;53.112;8.896;2023-03-22T10:58:17;100513.13;;;14.08;62.41
5126;BME280;63008;53.112;8.896;2023-03-22T11:00:19;100518.72;;;14.12;62.68
5126;BME280;63008;53.112;8.896;2023-03-22T11:02:29;100530.75;;;14.19;62.42
5126;BME280;63008;53.112;8.896;2023-03-22T11:04:30;100528.16;;;14.11;62.69
5126;BME280;63008;53.112;8.896;2023-03-22T11:06:31;100524.53;;;14.07;62.97
5126;BME280;63008;53.112;8.896;2023-03-22T11:08:45;100523.38;;;14.08;62.75
5126;BME280;63008;53.112;8.896;2023-03-22T11:10:49;100527.44;;;14.14;63.13
5126;BME280;63008;53.112;8.896;2023-03-22T11:13:09;100524.94;;;14.24;62.27
5126;BME280;63008;53.112;8.896;2023-03-22T11:17:29;100506.53;;;14.32;60.62
5126;BME280;63008;53.112;8.896;2023-03-22T11:19:39;100506.50;;;14.28;60.20
5126;BME280;63008;53.112;8.896;2023-03-22T11:21:41;100500.97;;;14.28;60.52
5126;BME280;63008;53.112;8.896;2023-03-22T11:23:53;100512.28;;;14.42;60.33
5126;BME280;63008;53.112;8.896;2023-03-22T11:25:56;100501.09;;;14.35;60.55
5126;BME280;63008;53.112;8.896;2023-03-22T11:30:27;100504.88;;;14.68;60.44
5126;BME280;63008;53.112;8.896;2023-03-22T11:32:35;100494.53;;;14.84;59.33
5126;BME280;63008;53.112;8.896;2023-03-22T11:34:36;100495.97;;;14.56;58.99
5126;BME280;63008;53.112;8.896;2023-03-22T11:36:43;100486.19;;;14.59;59.35
5126;BME280;63008;53.112;8.896;2023-03-22T11:38:45;100508.19;;;14.55;59.41
5126;BME280;63008;53.112;8.896;2023-03-22T11:40:51;100496.28;;;14.51;59.43